Relevés horaires Laegern (Suisse)


Relevés horaires à Laegern - Jeudi 18 Janv. 2018
Heure UTC1 Température [°C] Vent [km/h] Hum. [%] Pres.4 [hPa] Visi. [Km] Nébu. [octa] Préc.5 [mm] Cond.
2m. Res. Ros. Dir.2 Vit. Moy. Raf.3
19:00 2.4 2.4 2.1 SSO 0.0 -- 87.0 98 850(-0.7/3h) -- -- -- --
18:00 2.2 2.2 1.9 SSO 0.0 -- 85.2 98 850(-0.5/3h) -- -- -- --
17:00 2.1 2.1 1.8 SSO 0.0 -- 85.2 98 850(-0.3/3h) -- -- -- --
16:00 2.2 2.2 1.9 SSO 0.0 -- 83.3 98 850(-0.6/3h) -- -- -- --
15:00 2.3 2.3 2.0 SSO 0.0 -- 83.3 98 850(-1.8/3h) -- -- -- --
14:00 1.9 1.9 1.6 SSO 0.0 -- 81.5 98 850(-1.9/3h) -- -- -- --
13:00 1.4 1.4 1.1 SSO 0.0 -- 83.3 98 850(-1.6/3h) -- -- -- --
12:00 0.5 0.5 0.2 SSO 0.0 -- 85.2 98 850(-0.4/3h) -- -- -- --
11:00 0.1 0.1 -0.2 SSO 0.0 -- 83.3 98 850(-0.3/3h) -- -- -- --
10:00 -0.2 -0.2 -0.6 SSO 0.0 -- 85.2 97 850(0.2/3h) -- -- -- --
09:00 -0.6 -0.6 -1.0 SSO 0.0 -- 83.3 97 850(-0.6/3h) -- -- -- --
08:00 -0.9 -0.9 -1.3 SSO 0.0 -- 81.5 97 850(-1.6/3h) -- -- -- --
07:00 -1.0 -1.0 -1.4 SSO 0.0 -- 83.3 97 850(-2.7/3h) -- -- -- --
06:00 -1.0 -1.0 -1.4 SSO 0.0 -- 75.9 97 850(-2.8/3h) -- -- -- --
05:00 -1.1 -1.1 -1.5 SSO 0.0 -- 68.5 97 850(-2.4/3h) -- -- -- --
04:00 -1.0 -1.0 -1.4 SSO 0.0 -- 64.8 97 850(-2.2/3h) -- -- -- --
03:00 -1.2 -1.2 -1.6 SSO 0.0 -- 70.4 97 850(-1.5/3h) -- -- -- --
02:00 -1.4 -1.4 -1.8 SSO 0.0 -- 59.3 97 850(-0.7/3h) -- -- -- --
01:00 -1.4 -1.4 -1.8 SSO 0.0 -- 70.4 97 850(0.3/3h) -- -- -- --
00:00 -1.7 -1.7 -2.2 SSO 0.0 -- 57.4 96 850(0.2/3h) -- -- -- --

1 Coordinated Universal Time. Actuellement il est 20:00 locale et 19:00 UTC.

2 Le vent souffle depuis la direction indiquée vers la direction oposée.

3 Les rafales max. sont disponible 40 min après l'heure du relevé.

4 Pour les stations d'altitude (plus de 600m) le géopotentiel du niveau le plus proche de la pression obligatoire est indiqué.

5 Les stations disposant d'un diffuseur peuvent indiquer "trace". Cela signifie que des précipitations ont touchés le sol mais que la quantité est inférieure à 0.1 mm.

Récapitulatif de la journée
Température [°C] Vent [km/h] Ensoleillement4 [h] Precipitations totale5 [mm] Pression [Hpa]
Min1 Max.2 Moy.3 Max. Min Max.
-1.9 2.3 0 87.0 0 h 0 min 0 850.0 850.0

1 Température minimale relevée entre 18:00 UTC la veille et 18:00 UTC le jour donné.

2 Température maximale relevée entre 06:00 UTC le jour donné et 06:00 UTC le lendemain.

3 Vent moyen de la journée basé sur les relevés horaires.

4 Ensoleillement en heures relevé entre 06:00 UTC la veille et 06:00 UTC le jour donné.

5 Précipitations totales tombées entre 06:00 UTC la jour donné et 06:00 UTC le lendemain.

Graphiques horaires